Flight Track Log - Related Links

Times and Time Zones

All times are in EDT time to prevent confusion due to time zone crossing. See the ASQ5393 flight status page for this flight to view local times or setup timezone preferences in your user account.

Time Position Orientation Groundspeed Altitude Reporting Facility
EDT Latitude Longitude Course Direction KTS MPH feet Rate Location/Type
Fri 09:04:15 PM 33.6333 -84.3953 271° West  Level FlightAware Approximate
Fri 09:05:04 PM 33.6347 -84.5428 211° Southwest 431 496 3,900  Level Atlanta Center
Fri 09:06:04 PM 33.5803 -84.5825 171° South 308 354 6,300 2,550 Climbing Atlanta Center
Fri 09:07:04 PM 33.5114 -84.5694 172° South 293 337 9,000 2,150 Climbing Atlanta Center
Fri 09:08:04 PM 33.4217 -84.5542 175° South 307 353 10,600 1,950 Climbing Atlanta Center
Fri 09:09:04 PM 33.3297 -84.5436 176° South 327 376 12,900 1,950 Climbing Atlanta Center
Fri 09:10:04 PM 33.2297 -84.5356 175° South 354 407 14,500 1,600 Climbing Atlanta Center
Fri 09:11:04 PM 33.1211 -84.5250 209° Southwest 387 445 16,100 1,800 Climbing Atlanta Center
Fri 09:12:04 PM 33.0311 -84.5839 220° Southwest 367 422 18,100 2,050 Climbing Atlanta Center
Fri 09:13:04 PM 32.9389 -84.6750 219° Southwest 381 438 20,200 1,850 Climbing Atlanta Center
Fri 09:14:04 PM 32.8569 -84.7533 220° Southwest 386 444 21,800 1,500 Climbing Atlanta Center
Fri 09:15:04 PM 32.7794 -84.8294 217° Southwest 396 456 23,200 1,500 Climbing Atlanta Center
Fri 09:16:04 PM 32.6828 -84.9175 221° Southwest 403 464 24,800 1,350 Climbing Atlanta Center
Fri 09:17:04 PM 32.6008 -85.0028 218° Southwest 405 466 25,900 1,050 Climbing Atlanta Center
Fri 09:18:04 PM 32.5061 -85.0906 220° Southwest 416 479 26,900 1,000 Climbing Atlanta Center
Fri 09:19:04 PM 32.4178 -85.1781 219° Southwest 430 495 27,900 550 Climbing Atlanta Center
Fri 09:20:04 PM 32.3186 -85.2728 220° Southwest 437 503 28,000 50 Climbing Atlanta Center
Fri 09:21:04 PM 32.2236 -85.3672 219° Southwest 442 509 28,000 -350 Level Atlanta Center
Fri 09:22:04 PM 32.1372 -85.4492 218° Southwest 455 524 27,300 -1,097 Descending Atlanta Center
Fri 09:24:10 PM 31.9131 -85.6581 219° Southwest 460 529 24,600 -1,065 Descending Jacksonville Center
Fri 09:25:10 PM 31.8147 -85.7531 220° Southwest 460 529 24,000 -300 Descending Jacksonville Center
Fri 09:26:10 PM 31.7186 -85.8478 218° Southwest 460 529 24,000  Level Jacksonville Center
Fri 09:27:10 PM 31.6183 -85.9397 219° Southwest 460 529 24,000 -550 Level Jacksonville Center
Fri 09:28:10 PM 31.5331 -86.0197 219° Southwest 454 522 22,900 -1,650 Descending Jacksonville Center
Fri 09:29:10 PM 31.4431 -86.1044 219° Southwest 442 509 20,700 -2,150 Descending Jacksonville Center
Fri 09:30:10 PM 31.3489 -86.1936 219° Southwest 437 503 18,600 -1,900 Descending Jacksonville Center
Fri 09:31:10 PM 31.2592 -86.2778 218° Southwest 431 496 16,900 -2,150 Descending Jacksonville Center
Fri 09:32:10 PM 31.1733 -86.3575 219° Southwest 414 476 14,300 -2,650 Descending Jacksonville Center
Fri 09:33:10 PM 31.0856 -86.4414 214° Southwest 395 455 11,600 -1,750 Descending Jacksonville Center
Fri 09:34:10 PM 31.0108 -86.4992 181° South 355 409 10,800 -1,750 Descending Jacksonville Center
Fri 09:35:10 PM 30.9314 -86.5011 175° South 293 337 8,100 -2,200 Descending Jacksonville Center
Fri 09:36:10 PM 30.8503 -86.4931 174° South 287 330 6,400 -1,550 Descending Jacksonville Center
Fri 09:37:10 PM 30.7878 -86.4858 172° South 259 298 5,000 -1,150 Descending Jacksonville Center
Fri 09:38:10 PM 30.7339 -86.4767 174° South 228 262 4,100 -750 Descending Jacksonville Center
Fri 09:39:10 PM 30.6797 -86.4697 187° South 207 238 3,500 -800 Descending Jacksonville Center
Fri 09:40:10 PM 30.6275 -86.4775 187° South 193 222 2,500 -1,000 Descending Jacksonville Center

Login

Don't have an account? Register now (free) for customized features, flight alerts, and more!